Time;durP1;ratioP1;P1;durP2;ratioP2;P2;SDS_P1;SDS_P2;PMS_P1;PMS_P2;Temp;Humidity;BMP_temperature;BMP_pressure;BME280_temperature;BME280_humidity;BME280_pressure;Samples;Min_cycle;Max_cycle;Signal;HPM_P1;HPM_P2
2023/02/17 00:01:30;;;;;;;30.90;14.50;;;;;;;-3.22;83.36;96411.81;106859;1274;25717;-67
2023/02/17 00:03:59;;;;;;;31.00;15.90;;;;;;;-3.26;83.74;96413.02;106674;1274;22520;-67
2023/02/17 00:06:30;;;;;;;27.30;13.20;;;;;;;-3.27;83.90;96411.61;106844;1274;22520;-67
2023/02/17 00:08:59;;;;;;;36.50;15.30;;;;;;;-3.33;84.09;96408.54;106720;1274;22520;-67
2023/02/17 00:11:27;;;;;;;25.50;13.20;;;;;;;-3.33;83.78;96402.70;106677;1274;22513;-67
2023/02/17 00:13:56;;;;;;;27.20;12.00;;;;;;;-3.38;84.23;96404.72;106669;1274;22633;-67
2023/02/17 00:16:26;;;;;;;28.40;13.60;;;;;;;-3.44;83.76;96405.98;106836;1274;25535;-67
2023/02/17 00:19:00;;;;;;;30.50;15.10;;;;;;;-3.46;83.67;96401.71;106840;1260;22645;-67
2023/02/17 00:21:30;;;;;;;29.80;14.30;;;;;;;-3.46;84.00;96400.39;106708;1274;25441;-67
2023/02/17 00:23:59;;;;;;;27.80;13.10;;;;;;;-3.51;83.98;96402.20;106793;1274;24054;-67
2023/02/17 00:26:28;;;;;;;30.20;15.20;;;;;;;-3.54;84.37;96402.75;106674;1274;22523;-67
2023/02/17 00:28:57;;;;;;;28.80;14.50;;;;;;;-3.57;84.57;96401.04;106780;1274;25377;-67
2023/02/17 00:31:25;;;;;;;31.60;14.70;;;;;;;-3.60;84.89;96402.08;106795;1274;24231;-67
2023/02/17 00:33:54;;;;;;;31.50;15.50;;;;;;;-3.65;84.46;96393.41;106814;1274;25528;-67
2023/02/17 00:36:24;;;;;;;31.60;14.30;;;;;;;-3.66;84.28;96390.30;106883;1274;25500;-67
2023/02/17 00:38:55;;;;;;;36.00;17.60;;;;;;;-3.65;84.82;96386.36;106790;1274;22523;-67
2023/02/17 00:41:26;;;;;;;30.80;13.60;;;;;;;-3.64;84.40;96382.11;106822;1270;22657;-67
2023/02/17 00:43:58;;;;;;;28.20;12.90;;;;;;;-3.65;84.06;96370.06;106777;1274;23883;-67
2023/02/17 00:46:26;;;;;;;34.80;15.80;;;;;;;-3.62;83.97;96367.43;106837;1274;23390;-67
2023/02/17 00:48:55;;;;;;;27.30;13.40;;;;;;;-3.60;84.33;96363.08;106793;1274;22558;-67
2023/02/17 00:51:24;;;;;;;29.60;14.10;;;;;;;-3.62;84.63;96358.66;106776;1274;22523;-67
2023/02/17 00:53:52;;;;;;;43.10;17.70;;;;;;;-3.67;84.49;96356.18;106774;1274;25546;-67
2023/02/17 00:56:20;;;;;;;48.00;21.00;;;;;;;-3.66;85.05;96357.65;106736;1274;25577;-67
2023/02/17 00:58:49;;;;;;;42.40;21.30;;;;;;;-3.64;85.03;96358.56;106820;1274;24128;-67
2023/02/17 01:01:17;;;;;;;41.00;20.40;;;;;;;-3.62;85.04;96356.44;106718;1274;22524;-67
2023/02/17 01:03:45;;;;;;;40.30;20.30;;;;;;;-3.61;85.23;96355.63;106743;1274;22513;-69
2023/02/17 01:06:29;;;;;;;39.60;18.70;;;;;;;-3.60;84.80;96349.14;106753;1274;25560;-67
2023/02/17 01:08:57;;;;;;;38.60;16.80;;;;;;;-3.57;84.92;96343.80;106664;1274;22851;-67
2023/02/17 01:11:29;;;;;;;36.90;17.30;;;;;;;-3.52;84.62;96340.90;106822;1274;22521;-67
2023/02/17 01:13:59;;;;;;;40.30;18.20;;;;;;;-3.55;84.15;96334.05;106748;1274;22536;-67
2023/02/17 01:16:34;;;;;;;36.90;18.20;;;;;;;-3.46;84.96;96337.25;106715;1274;24380;-67
2023/02/17 01:19:04;;;;;;;36.50;17.40;;;;;;;-3.41;84.72;96334.02;106772;1274;24262;-67
2023/02/17 01:21:32;;;;;;;32.20;15.70;;;;;;;-3.42;84.37;96323.85;106700;1274;23753;-67
2023/02/17 01:24:04;;;;;;;35.30;17.20;;;;;;;-3.41;84.26;96315.61;106838;1274;25440;-67
2023/02/17 01:26:34;;;;;;;38.40;16.80;;;;;;;-3.36;84.51;96313.47;106798;1274;24362;-67
2023/02/17 01:29:04;;;;;;;37.20;17.20;;;;;;;-3.37;84.19;96313.23;106849;1274;22569;-67
2023/02/17 01:31:32;;;;;;;32.70;15.80;;;;;;;-3.27;84.84;96320.77;106572;1269;25401;-67
2023/02/17 01:34:02;;;;;;;35.80;17.10;;;;;;;-3.21;84.60;96326.02;106798;1274;24202;-67
2023/02/17 01:36:30;;;;;;;39.10;17.40;;;;;;;-3.25;83.90;96333.23;106709;1251;22526;-67
2023/02/17 01:38:59;;;;;;;31.00;15.30;;;;;;;-3.35;83.77;96335.69;106818;1274;22639;-67
2023/02/17 01:41:28;;;;;;;31.60;15.50;;;;;;;-3.46;83.76;96342.06;106676;1274;22647;-67
2023/02/17 01:44:05;;;;;;;30.20;14.60;;;;;;;-3.42;84.44;96339.31;106651;1274;25454;-67
2023/02/17 01:46:34;;;;;;;32.60;15.80;;;;;;;-3.43;83.94;96337.55;106774;1274;25413;-67
2023/02/17 01:49:32;;;;;;;29.40;14.80;;;;;;;-3.50;83.66;96336.53;106823;1274;22524;-67
2023/02/17 01:52:03;;;;;;;30.70;15.00;;;;;;;-3.58;83.77;96330.67;106805;1274;22517;-67
2023/02/17 01:54:58;;;;;;;29.90;14.80;;;;;;;-3.61;84.13;96331.22;106902;1274;24118;-67
2023/02/17 01:57:31;;;;;;;29.90;15.00;;;;;;;-3.65;83.97;96327.40;106745;1274;22710;-67
2023/02/17 01:59:59;;;;;;;27.20;12.80;;;;;;;-3.71;84.08;96327.96;106729;1274;23599;-67
2023/02/17 02:02:29;;;;;;;25.30;13.00;;;;;;;-3.71;84.02;96329.05;106739;1274;23899;-67
2023/02/17 02:04:59;;;;;;;33.00;14.30;;;;;;;-3.72;84.01;96326.40;106780;1274;22570;-67
2023/02/17 02:07:32;;;;;;;25.50;11.50;;;;;;;-3.72;83.87;96326.55;106827;1274;22781;-67
2023/02/17 02:10:02;;;;;;;23.90;12.90;;;;;;;-3.77;83.58;96322.70;106713;1274;25472;-67
2023/02/17 02:12:34;;;;;;;28.90;14.00;;;;;;;-3.82;83.55;96322.80;106798;1274;22621;-67
2023/02/17 02:15:15;;;;;;;25.30;13.00;;;;;;;-3.83;83.53;96323.27;106843;1274;22763;-67
2023/02/17 02:18:21;;;;;;;19.50;9.50;;;;;;;-3.82;83.74;96320.90;106830;1272;24459;-67
2023/02/17 02:21:11;;;;;;;25.40;11.60;;;;;;;-3.91;83.79;96317.75;106725;1274;22556;-67
2023/02/17 02:23:53;;;;;;;25.50;11.90;;;;;;;-3.95;83.77;96319.98;106820;1274;23270;-67
2023/02/17 02:26:49;;;;;;;20.10;10.50;;;;;;;-3.98;84.38;96318.24;106779;1274;25220;-67
2023/02/17 02:29:39;;;;;;;23.60;11.60;;;;;;;-4.06;84.31;96318.72;106953;1274;24381;-67
2023/02/17 02:32:36;;;;;;;19.50;9.80;;;;;;;-4.09;84.51;96319.13;106754;1274;23179;-67
2023/02/17 02:35:16;;;;;;;25.50;12.20;;;;;;;-4.15;84.85;96321.23;106833;1274;24183;-67
2023/02/17 02:37:52;;;;;;;26.40;12.10;;;;;;;-4.19;85.23;96319.80;106835;1274;25350;-67
2023/02/17 02:40:26;;;;;;;18.90;9.60;;;;;;;-4.23;85.01;96318.41;106674;1274;26666;-67
2023/02/17 02:42:56;;;;;;;17.90;8.90;;;;;;;-4.25;85.11;96313.01;106865;1274;27099;-67
2023/02/17 02:45:24;;;;;;;18.00;8.20;;;;;;;-4.27;84.79;96308.97;106706;1274;22527;-67
2023/02/17 02:47:55;;;;;;;14.80;7.80;;;;;;;-4.30;85.20;96312.73;106726;1267;22520;-67
2023/02/17 02:50:34;;;;;;;22.20;9.40;;;;;;;-4.36;85.42;96316.05;106757;1274;25391;-67
2023/02/17 02:53:31;;;;;;;27.30;11.60;;;;;;;-4.40;85.20;96317.08;106804;1274;25396;-67
2023/02/17 02:56:06;;;;;;;26.60;12.20;;;;;;;-4.36;84.97;96317.27;106677;1274;22653;-67
2023/02/17 02:59:07;;;;;;;21.30;9.90;;;;;;;-4.35;84.91;96314.07;106785;1274;22535;-67
2023/02/17 03:01:40;;;;;;;25.10;11.30;;;;;;;-4.29;84.87;96311.05;106716;1274;22516;-67
2023/02/17 03:04:18;;;;;;;24.00;11.80;;;;;;;-4.25;85.03;96313.36;106866;1274;22636;-67
2023/02/17 03:07:02;;;;;;;26.70;13.00;;;;;;;-4.23;84.99;96314.83;106754;1274;25119;-67
2023/02/17 03:09:31;;;;;;;21.20;9.40;;;;;;;-4.25;84.57;96321.77;106732;1274;22808;-67
2023/02/17 03:11:59;;;;;;;24.80;10.10;;;;;;;-4.20;84.77;96319.41;106869;1274;24166;-67
2023/02/17 03:14:36;;;;;;;25.90;9.90;;;;;;;-4.15;84.88;96318.81;106716;1274;22530;-67
2023/02/17 03:17:04;;;;;;;19.60;10.00;;;;;;;-4.15;84.61;96316.44;105746;1274;1477980;-70
2023/02/17 03:19:32;;;;;;;21.50;9.70;;;;;;;-4.15;84.50;96314.85;106706;1254;25610;-67
2023/02/17 03:22:05;;;;;;;21.90;10.50;;;;;;;-4.08;85.03;96316.58;106552;1274;25275;-67
2023/02/17 03:24:34;;;;;;;24.60;11.00;;;;;;;-4.04;84.73;96315.56;106723;1274;25492;-67
2023/02/17 03:27:02;;;;;;;22.40;11.40;;;;;;;-4.05;84.46;96314.83;106673;1274;24377;-67
2023/02/17 03:29:32;;;;;;;22.00;9.80;;;;;;;-4.07;84.17;96312.52;107011;1274;22517;-67
2023/02/17 03:32:01;;;;;;;17.90;9.40;;;;;;;-4.04;84.28;96316.06;106887;1274;24347;-67
2023/02/17 03:34:29;;;;;;;21.30;9.70;;;;;;;-4.07;83.96;96314.70;106657;1274;22701;-67
2023/02/17 03:36:57;;;;;;;21.10;10.10;;;;;;;-4.15;83.71;96314.53;106674;1274;25579;-67
2023/02/17 03:39:26;;;;;;;19.00;9.90;;;;;;;-4.16;83.98;96307.42;106672;1274;24385;-67
2023/02/17 03:41:54;;;;;;;49.10;24.00;;;;;;;-4.13;84.07;96307.58;106748;1274;25321;-67
2023/02/17 03:44:22;;;;;;;20.30;9.80;;;;;;;-4.16;83.67;96306.90;106797;1274;22692;-67
2023/02/17 03:46:50;;;;;;;24.20;11.30;;;;;;;-4.19;83.82;96303.64;106770;1274;25353;-67
2023/02/17 03:49:19;;;;;;;21.90;9.80;;;;;;;-4.20;84.23;96309.12;106672;1274;22649;-67
2023/02/17 03:51:47;;;;;;;21.40;11.00;;;;;;;-4.24;83.96;96307.39;106679;1274;25349;-67
2023/02/17 03:54:15;;;;;;;28.80;12.00;;;;;;;-4.28;83.83;96305.77;106754;1273;22524;-67
2023/02/17 03:56:43;;;;;;;47.80;21.00;;;;;;;-4.33;83.96;96302.77;106796;1274;22516;-67
2023/02/17 03:59:11;;;;;;;21.30;9.70;;;;;;;-4.39;84.17;96312.82;106685;1274;22530;-68
2023/02/17 04:01:39;;;;;;;18.50;9.50;;;;;;;-4.44;84.16;96312.91;106740;1274;25367;-67
2023/02/17 04:04:08;;;;;;;22.70;10.30;;;;;;;-4.50;84.48;96309.88;106681;1274;22679;-67
2023/02/17 04:06:37;;;;;;;17.90;8.70;;;;;;;-4.53;84.42;96306.42;106829;1274;24293;-67
2023/02/17 04:09:05;;;;;;;15.40;7.70;;;;;;;-4.58;84.28;96308.80;106700;1274;22524;-67
2023/02/17 04:11:33;;;;;;;18.30;9.90;;;;;;;-4.62;84.27;96309.58;106730;1274;24206;-67
2023/02/17 04:14:01;;;;;;;22.60;9.70;;;;;;;-4.64;84.54;96315.35;106721;1259;24290;-67
2023/02/17 04:16:29;;;;;;;19.90;10.20;;;;;;;-4.68;84.74;96313.06;106731;1274;22527;-67
2023/02/17 04:18:57;;;;;;;14.70;7.50;;;;;;;-4.76;84.58;96309.20;106772;1274;22639;-67
2023/02/17 04:21:26;;;;;;;28.40;13.00;;;;;;;-4.82;84.38;96310.49;106738;1274;23760;-67
2023/02/17 04:23:54;;;;;;;44.70;23.10;;;;;;;-4.87;84.74;96308.16;106757;1274;22639;-67
2023/02/17 04:26:22;;;;;;;124.90;47.30;;;;;;;-4.90;84.70;96308.35;106639;1274;22754;-67
2023/02/17 04:28:50;;;;;;;61.60;23.30;;;;;;;-4.92;84.93;96304.13;106796;1274;22520;-67
2023/02/17 04:31:18;;;;;;;36.00;15.50;;;;;;;-4.91;85.21;96294.73;106753;1274;26034;-67
2023/02/17 04:33:47;;;;;;;79.50;34.40;;;;;;;-4.93;85.31;96296.67;106748;1274;22568;-67
2023/02/17 04:36:15;;;;;;;100.30;44.10;;;;;;;-4.93;84.86;96298.55;106680;1274;24388;-67
2023/02/17 04:38:44;;;;;;;48.20;19.40;;;;;;;-4.91;85.32;96294.20;106730;1274;22536;-67
2023/02/17 04:41:12;;;;;;;40.90;17.80;;;;;;;-4.92;85.14;96288.33;106836;1274;25332;-67
2023/02/17 04:43:40;;;;;;;24.20;12.20;;;;;;;-4.91;85.38;96287.55;106505;1274;22523;-67
2023/02/17 04:46:10;;;;;;;35.40;15.10;;;;;;;-4.94;85.06;96282.23;106749;1274;25447;-67
2023/02/17 04:48:39;;;;;;;42.70;21.90;;;;;;;-4.98;85.23;96284.23;106647;1274;22601;-67
2023/02/17 04:51:07;;;;;;;28.90;13.40;;;;;;;-5.03;85.14;96287.92;106614;1275;25391;-67
2023/02/17 04:53:35;;;;;;;21.20;11.00;;;;;;;-5.06;85.62;96287.95;106685;1274;22637;-67
2023/02/17 04:56:03;;;;;;;27.60;13.20;;;;;;;-5.08;85.43;96286.96;106726;1274;24533;-67
2023/02/17 04:58:32;;;;;;;21.10;9.70;;;;;;;-5.07;85.67;96286.16;106773;1274;25572;-67
2023/02/17 05:01:00;;;;;;;35.10;15.10;;;;;;;-5.07;86.03;96292.02;106789;1274;24303;-67
2023/02/17 05:03:28;;;;;;;27.70;12.40;;;;;;;-5.05;86.15;96299.17;106839;1275;22534;-67
2023/02/17 05:05:57;;;;;;;36.90;16.80;;;;;;;-5.03;86.00;96292.22;106686;1274;22644;-67
2023/02/17 05:08:25;;;;;;;32.30;13.20;;;;;;;-4.99;86.31;96291.59;106805;1274;25312;-67
2023/02/17 05:10:53;;;;;;;28.20;13.40;;;;;;;-4.93;86.25;96295.64;106731;1274;22642;-67
2023/02/17 05:13:21;;;;;;;31.70;14.60;;;;;;;-4.94;85.89;96293.74;106778;1274;25396;-67
2023/02/17 05:15:49;;;;;;;31.00;15.30;;;;;;;-4.95;85.51;96297.93;106774;1274;22528;-67
2023/02/17 05:18:18;;;;;;;50.10;22.00;;;;;;;-4.97;86.01;96301.95;106861;1274;22645;-67
2023/02/17 05:20:46;;;;;;;58.30;26.00;;;;;;;-4.98;85.44;96299.70;106685;1274;23913;-67
2023/02/17 05:23:14;;;;;;;32.80;15.80;;;;;;;-4.98;85.87;96303.48;106674;1274;25367;-67
2023/02/17 05:25:42;;;;;;;43.70;19.10;;;;;;;-4.93;86.11;96299.94;106748;1274;23896;-67
2023/02/17 05:28:10;;;;;;;48.10;19.90;;;;;;;-4.92;86.30;96302.42;106699;1274;23022;-67
2023/02/17 05:30:39;;;;;;;23.90;11.50;;;;;;;-4.85;86.45;96307.55;106705;1274;23018;-67
2023/02/17 05:33:07;;;;;;;45.50;22.20;;;;;;;-4.80;86.24;96310.04;106827;1274;22526;-67
2023/02/17 05:35:35;;;;;;;52.50;26.30;;;;;;;-4.74;85.92;96312.92;106734;1274;24162;-67
2023/02/17 05:38:03;;;;;;;69.60;30.80;;;;;;;-4.78;85.10;96312.57;106862;1263;22523;-67
2023/02/17 05:40:31;;;;;;;43.50;21.30;;;;;;;-4.75;85.41;96308.61;106693;1274;22549;-67
2023/02/17 05:43:00;;;;;;;59.70;25.10;;;;;;;-4.72;85.54;96308.20;106809;1274;22789;-67
2023/02/17 05:45:28;;;;;;;53.20;23.80;;;;;;;-4.71;85.50;96307.78;106754;1274;25554;-67
2023/02/17 05:47:56;;;;;;;49.00;23.30;;;;;;;-4.68;85.31;96311.15;106895;1274;22848;-67
2023/02/17 05:50:24;;;;;;;36.30;16.30;;;;;;;-4.68;85.04;96306.89;106790;1275;25577;-67
2023/02/17 05:52:52;;;;;;;56.60;26.10;;;;;;;-4.67;85.11;96311.56;106795;1274;23913;-67
2023/02/17 05:55:21;;;;;;;48.40;21.60;;;;;;;-4.65;85.55;96315.79;106678;1274;24385;-67
2023/02/17 05:57:50;;;;;;;36.00;17.20;;;;;;;-4.61;85.49;96322.86;106692;1274;22534;-67
2023/02/17 06:00:18;;;;;;;55.30;24.80;;;;;;;-4.57;86.07;96323.94;106942;1274;25472;-67
2023/02/17 06:02:46;;;;;;;36.10;16.40;;;;;;;-4.53;86.20;96333.24;106728;1274;22591;-67
2023/02/17 06:05:15;;;;;;;143.90;54.30;;;;;;;-4.43;86.03;96332.52;106789;1274;22635;-67
2023/02/17 06:07:43;;;;;;;54.20;24.20;;;;;;;-4.30;86.12;96333.17;106735;1274;22521;-67
2023/02/17 06:10:12;;;;;;;71.30;36.90;;;;;;;-4.31;85.07;96332.63;106807;1274;22795;-67
2023/02/17 06:12:40;;;;;;;86.70;41.60;;;;;;;-4.33;84.50;96334.05;106734;1267;22529;-67
2023/02/17 06:15:09;;;;;;;102.90;49.30;;;;;;;-4.28;85.29;96327.07;107070;1274;22619;-67
2023/02/17 06:17:37;;;;;;;163.20;78.70;;;;;;;-4.12;85.51;96333.54;106750;1274;22633;-67
2023/02/17 06:20:07;;;;;;;181.20;86.60;;;;;;;-4.05;85.16;96325.64;106714;1274;22543;-67
2023/02/17 06:22:35;;;;;;;202.80;98.60;;;;;;;-4.02;85.32;96327.33;106746;1274;22565;-67
2023/02/17 06:25:04;;;;;;;246.50;119.40;;;;;;;-3.94;85.82;96323.95;106815;1274;22646;-67
2023/02/17 06:27:33;;;;;;;191.80;96.30;;;;;;;-3.83;85.80;96324.67;106805;1274;22560;-67
2023/02/17 06:30:01;;;;;;;144.90;68.60;;;;;;;-3.75;85.31;96329.16;106806;1274;22531;-67
2023/02/17 06:32:29;;;;;;;136.40;67.50;;;;;;;-3.72;84.81;96327.77;106806;1274;22646;-67
2023/02/17 06:34:57;;;;;;;133.60;65.30;;;;;;;-3.64;85.17;96328.85;106872;1274;24086;-67
2023/02/17 06:37:25;;;;;;;124.50;62.30;;;;;;;-3.53;85.45;96323.15;106756;1274;22528;-66
2023/02/17 06:39:54;;;;;;;83.20;42.00;;;;;;;-3.42;85.53;96319.71;106772;1274;24247;-67
2023/02/17 06:42:22;;;;;;;82.20;43.00;;;;;;;-3.30;85.39;96314.58;106753;1274;22530;-67
2023/02/17 06:44:50;;;;;;;97.70;49.10;;;;;;;-3.19;85.35;96309.92;106694;1274;24222;-67
2023/02/17 06:47:18;;;;;;;77.30;38.70;;;;;;;-3.10;85.11;96304.64;106647;1274;22991;-67
2023/02/17 06:49:47;;;;;;;56.50;27.60;;;;;;;-2.99;85.07;96305.47;106710;1274;22529;-67
2023/02/17 06:52:15;;;;;;;68.60;32.30;;;;;;;-2.92;85.00;96300.31;106762;1274;22517;-67
2023/02/17 06:54:46;;;;;;;57.40;29.60;;;;;;;-2.81;85.04;96301.98;106784;1274;24215;-67
2023/02/17 06:57:16;;;;;;;50.90;26.40;;;;;;;-2.70;84.99;96305.23;106704;1251;22636;-67
2023/02/17 06:59:44;;;;;;;51.20;26.10;;;;;;;-2.58;84.87;96306.77;106763;1274;24203;-67
2023/02/17 07:02:13;;;;;;;52.40;27.10;;;;;;;-2.50;85.20;96297.48;106699;1274;25328;-67
2023/02/17 07:04:42;;;;;;;242.10;96.00;;;;;;;-2.38;85.19;96298.64;106772;1274;25261;-67
2023/02/17 07:07:11;;;;;;;116.20;54.70;;;;;;;-2.28;85.69;96298.56;106899;1274;25380;-67
2023/02/17 07:09:39;;;;;;;88.70;45.40;;;;;;;-2.12;85.77;96300.98;106627;1274;22681;-67
2023/02/17 07:12:07;;;;;;;68.70;37.70;;;;;;;-1.96;85.89;96298.85;106752;1275;25325;-67
2023/02/17 07:14:36;;;;;;;67.70;34.40;;;;;;;-1.80;85.93;96303.98;106765;1274;22525;-67
2023/02/17 07:17:04;;;;;;;56.90;32.10;;;;;;;-1.63;85.67;96298.78;106648;1274;23893;-67
2023/02/17 07:19:33;;;;;;;75.60;43.10;;;;;;;-1.47;85.41;96295.96;106741;1274;24378;-67
2023/02/17 07:22:01;;;;;;;64.90;34.80;;;;;;;-1.33;85.39;96300.81;106736;1274;24378;-67
2023/02/17 07:24:30;;;;;;;65.60;34.80;;;;;;;-1.17;85.30;96296.08;106713;1274;22846;-67
2023/02/17 07:26:59;;;;;;;58.80;31.00;;;;;;;-1.01;85.04;96298.38;106824;1263;22636;-68
2023/02/17 07:29:27;;;;;;;60.70;33.20;;;;;;;-0.85;84.82;96301.05;106801;1274;22533;-68
2023/02/17 07:31:56;;;;;;;56.30;30.60;;;;;;;-0.71;84.71;96297.92;106768;1251;22543;-67
2023/02/17 07:34:24;;;;;;;48.10;27.20;;;;;;;-0.55;84.63;96297.64;106710;1274;25530;-67
2023/02/17 07:36:52;;;;;;;51.70;27.10;;;;;;;-0.36;84.60;96293.77;106755;1274;22520;-67
2023/02/17 07:39:20;;;;;;;66.80;35.30;;;;;;;-0.16;84.82;96294.15;106790;1274;22525;-68
2023/02/17 07:41:48;;;;;;;60.00;31.20;;;;;;;0.06;84.86;96286.92;106804;1274;22544;-67
2023/02/17 07:44:18;;;;;;;65.80;32.20;;;;;;;0.35;85.01;96279.20;106890;1274;25220;-67
2023/02/17 07:46:46;;;;;;;68.80;34.10;;;;;;;0.63;84.72;96275.08;106730;1274;22524;-68
2023/02/17 07:49:14;;;;;;;48.10;23.90;;;;;;;0.96;84.23;96266.31;106783;1263;22544;-68
2023/02/17 07:51:42;;;;;;;48.30;22.00;;;;;;;1.41;83.02;96258.39;106692;1274;22530;-68
2023/02/17 07:54:12;;;;;;;42.70;19.60;;;;;;;1.90;81.40;96257.27;106745;1274;23145;-68
2023/02/17 07:56:40;;;;;;;35.20;18.70;;;;;;;2.37;79.17;96245.23;106873;1275;22531;-68
2023/02/17 07:59:10;;;;;;;38.50;20.00;;;;;;;2.76;77.26;96251.85;106841;1274;25232;-68
2023/02/17 08:01:38;;;;;;;44.80;21.90;;;;;;;3.15;75.54;96255.30;106852;1275;24247;-68
2023/02/17 08:04:06;;;;;;;44.80;21.90;;;;;;;3.48;76.57;96254.55;106775;1274;22781;-68
2023/02/17 08:06:38;;;;;;;37.30;19.90;;;;;;;3.78;73.39;96250.77;106717;1275;25379;-68
2023/02/17 08:14:42;;;;;;;30.70;16.30;;;;;;;3.97;69.01;96242.23;106692;1274;22535;-69
2023/02/17 08:17:10;;;;;;;31.20;17.30;;;;;;;3.99;69.31;96243.66;106820;1274;24246;-69
2023/02/17 08:19:39;;;;;;;32.60;17.30;;;;;;;4.02;68.48;96244.58;106830;1274;24183;-69
2023/02/17 08:22:16;;;;;;;37.30;20.00;;;;;;;4.08;68.49;96242.95;106665;1274;22530;-68
2023/02/17 08:24:45;;;;;;;40.00;23.20;;;;;;;4.19;68.09;96247.29;106806;1274;22527;-69
2023/02/17 08:27:14;;;;;;;32.40;17.10;;;;;;;4.26;67.76;96248.29;106892;1274;23860;-69
2023/02/17 08:29:43;;;;;;;29.70;14.70;;;;;;;4.36;66.23;96247.23;106798;1274;25324;-69
2023/02/17 08:32:14;;;;;;;29.90;15.60;;;;;;;4.46;65.64;96250.16;106785;1274;25505;-69
2023/02/17 08:34:43;;;;;;;24.10;12.70;;;;;;;4.55;65.44;96244.21;106818;1274;22794;-69
2023/02/17 08:37:11;;;;;;;27.30;15.90;;;;;;;4.66;63.75;96249.25;106739;1274;24364;-69
2023/02/17 08:39:39;;;;;;;22.90;10.10;;;;;;;4.85;62.56;96252.31;106644;1275;22529;-69
2023/02/17 08:42:08;;;;;;;18.00;8.80;;;;;;;5.01;62.18;96249.23;106762;1274;24380;-69
2023/02/17 08:44:36;;;;;;;17.40;8.10;;;;;;;5.23;60.50;96246.90;106751;1274;24198;-69
2023/02/17 08:47:05;;;;;;;16.80;8.60;;;;;;;5.40;61.51;96241.00;106915;1274;25360;-69
2023/02/17 08:49:34;;;;;;;16.10;8.50;;;;;;;5.51;62.58;96232.74;106764;1274;23909;-69
2023/02/17 08:52:03;;;;;;;17.90;9.40;;;;;;;5.60;60.52;96229.01;106775;1274;22527;-69
2023/02/17 08:54:32;;;;;;;17.40;9.20;;;;;;;5.71;61.54;96228.26;106817;1274;22658;-69
2023/02/17 08:57:00;;;;;;;14.60;8.60;;;;;;;5.79;61.47;96224.32;106935;1274;24377;-69
2023/02/17 08:59:29;;;;;;;16.60;8.40;;;;;;;5.87;60.71;96219.33;106789;1274;24276;-69
2023/02/17 09:01:57;;;;;;;15.40;7.90;;;;;;;5.91;60.74;96215.70;106822;1274;22849;-69
2023/02/17 09:04:25;;;;;;;15.40;7.90;;;;;;;5.97;59.66;96215.79;106674;1274;25284;-69
2023/02/17 09:06:55;;;;;;;14.80;8.30;;;;;;;6.08;60.72;96211.52;106799;1274;25222;-69
2023/02/17 09:09:28;;;;;;;18.30;8.80;;;;;;;6.21;60.06;96212.17;106825;1274;22532;-69
2023/02/17 09:11:57;;;;;;;19.00;11.10;;;;;;;6.38;61.13;96213.86;106796;1275;25437;-69
2023/02/17 09:14:25;;;;;;;20.50;11.90;;;;;;;6.58;59.89;96208.77;106809;1274;25220;-68
2023/02/17 09:16:55;;;;;;;22.20;11.30;;;;;;;6.75;57.75;96211.14;106755;1274;24394;-68
2023/02/17 09:19:24;;;;;;;16.60;8.80;;;;;;;6.89;56.27;96211.77;106800;1274;24277;-69
2023/02/17 09:21:52;;;;;;;19.40;11.00;;;;;;;7.05;56.44;96215.51;106749;1274;25275;-68
2023/02/17 09:24:21;;;;;;;15.40;8.30;;;;;;;7.21;56.40;96212.96;106680;1274;22686;-68
2023/02/17 09:26:49;;;;;;;18.40;10.50;;;;;;;7.35;54.34;96218.09;106820;1274;22628;-68
2023/02/17 09:29:17;;;;;;;22.70;12.70;;;;;;;7.48;54.83;96218.49;106790;1274;23911;-68
2023/02/17 09:31:45;;;;;;;21.70;12.40;;;;;;;7.55;53.89;96219.57;106803;1274;22523;-68
2023/02/17 09:34:14;;;;;;;21.90;12.50;;;;;;;7.65;53.97;96219.78;106778;1274;25261;-68
2023/02/17 09:36:42;;;;;;;22.20;12.80;;;;;;;7.76;53.01;96220.50;106784;1274;24240;-68
2023/02/17 09:39:12;;;;;;;25.40;14.40;;;;;;;7.83;53.43;96219.11;106754;1274;22643;-68
2023/02/17 09:41:46;;;;;;;19.10;10.70;;;;;;;7.89;52.50;96222.13;106787;1274;22527;-68
2023/02/17 09:44:24;;;;;;;17.50;10.80;;;;;;;8.01;52.53;96222.13;106816;1274;22554;-68
2023/02/17 09:46:56;;;;;;;19.20;11.60;;;;;;;8.10;51.76;96217.23;106796;1274;25399;-68
2023/02/17 09:49:47;;;;;;;18.30;10.00;;;;;;;8.17;52.26;96218.80;106881;1274;24865;-69
2023/02/17 09:52:37;;;;;;;18.00;10.20;;;;;;;8.22;51.76;96221.27;106884;1274;22563;-68
2023/02/17 09:55:15;;;;;;;17.40;9.80;;;;;;;8.19;51.70;96221.45;106845;1274;22650;-68
2023/02/17 09:57:53;;;;;;;16.10;9.90;;;;;;;8.11;50.00;96220.55;106757;1274;22560;-68
2023/02/17 10:00:40;;;;;;;16.80;9.10;;;;;;;8.07;50.78;96217.92;106703;1274;22569;-68
2023/02/17 10:03:18;;;;;;;13.30;7.50;;;;;;;8.05;51.00;96224.23;106781;1274;24193;-68
2023/02/17 10:05:55;;;;;;;15.60;8.20;;;;;;;7.98;50.48;96221.60;106821;1274;24416;-68
2023/02/17 10:08:30;;;;;;;20.80;9.20;;;;;;;7.93;50.70;96224.75;106765;1274;24262;-68
2023/02/17 10:11:36;;;;;;;15.50;8.40;;;;;;;7.88;50.35;96221.92;106801;1274;22532;-68
2023/02/17 10:14:18;;;;;;;15.80;7.80;;;;;;;7.77;50.00;96220.86;106768;1274;22521;-68
2023/02/17 10:17:06;;;;;;;15.40;7.80;;;;;;;7.72;50.72;96218.56;106751;1274;25420;-68
2023/02/17 10:19:53;;;;;;;14.70;8.00;;;;;;;7.70;50.91;96216.28;106865;1274;24384;-68
2023/02/17 10:22:23;;;;;;;13.10;7.90;;;;;;;7.61;49.95;96209.77;107022;1274;25392;-68
2023/02/17 10:24:52;;;;;;;12.70;6.80;;;;;;;7.60;50.47;96210.83;107044;1274;22523;-68
2023/02/17 10:27:40;;;;;;;13.60;6.90;;;;;;;7.55;50.56;96209.60;106788;1274;25531;-68
2023/02/17 10:30:23;;;;;;;14.70;7.80;;;;;;;7.54;50.98;96204.69;106996;1273;25220;-68
2023/02/17 10:33:03;;;;;;;18.60;9.70;;;;;;;7.50;50.31;96201.18;106908;1273;22638;-68
2023/02/17 10:35:47;;;;;;;16.80;8.30;;;;;;;7.43;50.92;96196.94;106726;1274;23226;-68
2023/02/17 10:38:31;;;;;;;16.70;9.00;;;;;;;7.35;50.64;96204.63;106860;1274;24362;-68
2023/02/17 10:41:02;;;;;;;14.90;7.30;;;;;;;7.32;50.39;96210.38;107059;1274;25343;-68
2023/02/17 10:43:32;;;;;;;15.00;8.50;;;;;;;7.31;50.69;96201.81;106839;1274;25496;-69
2023/02/17 10:46:05;;;;;;;13.90;7.60;;;;;;;7.30;50.90;96202.33;106755;1274;25507;-69
2023/02/17 10:48:43;;;;;;;;;;;;;;;7.28;49.36;96193.92;106841;1274;24407;-69
2023/02/17 10:51:17;;;;;;;12.60;7.70;;;;;;;7.26;49.68;96198.82;106782;1274;23925;-69
2023/02/17 10:53:50;;;;;;;15.00;8.50;;;;;;;7.28;50.49;96197.59;106787;1274;24383;-69
2023/02/17 10:56:22;;;;;;;;;;;;;;;7.26;50.80;96192.69;106726;1274;24434;-69
2023/02/17 10:59:17;;;;;;;16.80;8.60;;;;;;;7.22;51.02;96194.77;106724;1274;22538;-69
2023/02/17 11:01:47;;;;;;;15.50;9.00;;;;;;;7.20;50.95;96196.17;106780;1274;22554;-69
2023/02/17 11:04:16;;;;;;;17.20;9.90;;;;;;;7.16;51.26;96190.36;106751;1274;23873;-69
2023/02/17 11:06:53;;;;;;;18.30;10.70;;;;;;;7.14;51.14;96192.81;106762;1274;22546;-69
2023/02/17 11:09:28;;;;;;;18.50;9.80;;;;;;;7.11;51.57;96190.88;106821;1274;25470;-69
2023/02/17 11:11:59;;;;;;;14.10;8.00;;;;;;;7.07;51.57;96188.59;106789;1274;25490;-69
2023/02/17 11:14:36;;;;;;;14.50;7.80;;;;;;;7.05;50.21;96182.98;106875;1274;25465;-69
2023/02/17 11:17:33;;;;;;;15.60;8.10;;;;;;;7.04;51.05;96181.58;106758;1274;22530;-69
2023/02/17 11:20:27;;;;;;;14.80;7.60;;;;;;;7.02;50.30;96175.96;106778;1274;24202;-69
2023/02/17 11:23:20;;;;;;;13.40;8.30;;;;;;;6.99;50.04;96171.05;106747;1274;22540;-68
2023/02/17 11:26:15;;;;;;;13.60;7.50;;;;;;;7.00;50.92;96166.50;106748;1274;22526;-68
2023/02/17 11:28:43;;;;;;;10.70;6.40;;;;;;;7.01;50.93;96168.79;107054;1274;22537;-69
2023/02/17 11:31:23;;;;;;;12.00;6.80;;;;;;;7.02;51.08;96161.61;107003;1274;24240;-68
2023/02/17 11:33:52;;;;;;;11.70;6.50;;;;;;;7.03;51.81;96156.91;106869;1274;25315;-68
2023/02/17 11:36:28;;;;;;;13.40;7.10;;;;;;;7.06;51.72;96155.17;106890;1274;24279;-69
2023/02/17 11:38:58;;;;;;;15.00;7.80;;;;;;;7.07;52.03;96150.63;106837;1274;22524;-69
2023/02/17 11:41:26;;;;;;;17.70;8.20;;;;;;;7.05;51.91;96155.67;106844;1274;24241;-68